KMBY

Omar N Bradley Airport

Moberly, Missouri, USA
METAR KMBY 260255Z AUTO 16004KT 10SM SCT110 03/M05 A3012 RMK AO2
Observed Flight Rules
Feb-26 @ 02:55 UTC (20 minutes ago) Visual Flight Rules
Wind Visibility Clouds
160° at 4 knots 10 miles
  • Scattered at 11,000' AGL
Temperatures Readings
Current 3°C / 37°F
Dewpoint -5°C / 23°F
Humidity 56%
Altimeter 30.12" Hg
Pressure 1020 hPa
Elevation 264
METAR KMBY 260255Z AUTO 16004KT 10SM SCT110 03/M05 A3012 RMK AO2
Observed Flight Rules
Feb-26 @ 02:55 UTC
(20 minutes ago)
VFR
Wind Visibility
160° at 4 knots 10 miles
Clouds
  • Scattered at 11,000' AGL
Temperature Dewpoint
3°C / 37°F -5°C / 23°F
Humidity Altimeter Pressure
56% 30.12" Hg 1020 hPa